Terminal Aerodrome Forecast
Issued by NWS

Home | Current Version | Previous Version | Text Only | Print | Product List | Glossary On
Versions: 1 2 3 4 5 6 7 8 9 10 11 12 13 14 15 16 17 18 19 20 21 22 23 24 25 26 27 28 29 30 31 32 33 34 35 36 37 38 39 40 41 42 43 44 45 46 47 48 49 50
000
FTUS46 KOTX 182334
TAFPUW
TAF
KPUW 182334Z 1900/1924 33015G22KT 3SM -SHSN BR SCT008 BKN015 OVC040
      TEMPO 1900/1901 1 1/2SM -SHSN BR BKN008 OVC015
     FM190200 04009KT P6SM VCSH SCT015 OVC035
     FM190800 03010KT 4SM -SHSN BKN025 OVC040
     FM191500 05009KT P6SM OVC050
     FM192100 30009KT P6SM BKN250=

USA.gov is the U.S. government's official web portal to all federal, state and local government web resources and services.